Time;durP1;ratioP1;P1;durP2;ratioP2;P2;SDS_P1;SDS_P2;PMS_P1;PMS_P2;Temp;Humidity;BMP_temperature;BMP_pressure;BME280_temperature;BME280_humidity;BME280_pressure;Samples;Min_cycle;Max_cycle;Signal;HPM_P1;HPM_P2
2023/04/14 00:00:47;;;;;;;12.43;8.13;;;9.30;99.90;;;;;;2080400;28;20032;-71
2023/04/14 00:01:48;;;;;;;12.15;8.90;;;9.30;99.90;;;;;;2085009;28;20036;-72
2023/04/14 00:02:49;;;;;;;13.52;8.93;;;9.30;99.90;;;;;;2086979;28;20031;-72
2023/04/14 00:03:50;;;;;;;12.48;8.93;;;9.30;99.90;;;;;;2083026;28;20477;-72
2023/04/14 00:04:52;;;;;;;12.50;8.10;;;9.30;99.90;;;;;;2084251;28;20087;-72
2023/04/14 00:05:52;;;;;;;11.02;7.97;;;9.30;99.90;;;;;;2089488;28;20032;-72
2023/04/14 00:06:57;;;;;;;12.55;8.15;;;9.30;99.90;;;;;;2082790;28;20048;-76
2023/04/14 00:07:58;;;;;;;10.48;7.53;;;9.30;99.90;;;;;;2076743;28;20073;-76
2023/04/14 00:08:58;;;;;;;10.38;7.43;;;9.30;99.90;;;;;;2077111;28;20037;-76
2023/04/14 00:09:59;;;;;;;12.30;7.57;;;9.30;99.90;;;;;;2080935;28;20438;-75
2023/04/14 00:11:00;;;;;;;12.93;8.55;;;9.30;99.90;;;;;;2083491;28;20610;-76
2023/04/14 00:12:00;;;;;;;13.70;8.65;;;9.30;99.90;;;;;;2082853;28;20628;-75
2023/04/14 00:13:01;;;;;;;11.88;8.30;;;9.30;99.90;;;;;;2082978;28;20051;-76
2023/04/14 00:14:02;;;;;;;13.25;8.98;;;9.30;99.90;;;;;;2082971;28;20507;-76
2023/04/14 00:15:02;;;;;;;15.13;8.40;;;9.30;99.90;;;;;;2085142;28;20020;-76
2023/04/14 00:16:03;;;;;;;13.85;8.40;;;9.30;99.90;;;;;;2083200;28;20032;-76
2023/04/14 00:17:04;;;;;;;13.10;8.35;;;9.30;99.90;;;;;;2081502;28;20040;-76
2023/04/14 00:18:05;;;;;;;15.25;8.65;;;9.30;99.90;;;;;;2078215;28;20500;-76
2023/04/14 00:19:05;;;;;;;12.70;8.48;;;9.20;99.90;;;;;;2081226;28;20056;-76
2023/04/14 00:20:07;;;;;;;13.52;8.60;;;9.20;99.90;;;;;;2083337;28;20033;-74
2023/04/14 00:21:07;;;;;;;12.68;8.40;;;9.30;99.90;;;;;;2085663;28;20916;-76
2023/04/14 00:22:08;;;;;;;14.43;8.27;;;9.20;99.90;;;;;;2076596;28;20038;-77
2023/04/14 00:23:09;;;;;;;13.48;8.55;;;9.20;99.90;;;;;;2082840;28;20036;-76
2023/04/14 00:24:09;;;;;;;13.52;8.05;;;9.20;99.90;;;;;;2085502;28;20475;-76
2023/04/14 00:25:10;;;;;;;12.93;7.68;;;9.20;99.90;;;;;;2087358;28;20115;-75
2023/04/14 00:26:10;;;;;;;12.48;8.27;;;9.20;99.90;;;;;;2074465;28;20045;-76
2023/04/14 00:27:15;;;;;;;13.13;8.25;;;9.20;99.90;;;;;;2082844;28;20370;-77
2023/04/14 00:28:15;;;;;;;13.25;8.85;;;9.20;99.90;;;;;;2089497;28;20017;-77
2023/04/14 00:29:19;;;;;;;13.02;8.52;;;9.30;99.90;;;;;;2077059;28;20040;-77
2023/04/14 00:30:19;;;;;;;13.40;8.68;;;9.20;99.90;;;;;;2082985;28;20033;-77
2023/04/14 00:31:20;;;;;;;10.75;7.50;;;9.20;99.90;;;;;;2082468;28;20040;-77
2023/04/14 00:32:21;;;;;;;11.05;7.93;;;9.30;99.90;;;;;;2083373;28;20512;-75
2023/04/14 00:33:22;;;;;;;12.50;8.52;;;9.20;99.90;;;;;;2085422;28;20033;-77
2023/04/14 00:34:22;;;;;;;12.95;8.52;;;9.20;99.90;;;;;;2080650;28;20104;-77
2023/04/14 00:35:23;;;;;;;13.43;7.95;;;9.20;99.90;;;;;;2083498;28;20016;-77
2023/04/14 00:36:24;;;;;;;11.52;8.60;;;9.20;99.90;;;;;;2082604;28;20029;-76
2023/04/14 00:37:25;;;;;;;12.25;8.38;;;9.20;99.90;;;;;;2084809;28;20021;-77
2023/04/14 00:38:26;;;;;;;13.00;8.30;;;9.20;99.90;;;;;;2083344;28;20629;-77
2023/04/14 00:39:27;;;;;;;11.73;8.15;;;9.10;99.90;;;;;;2083463;28;20071;-78
2023/04/14 00:40:28;;;;;;;15.05;9.35;;;9.10;99.90;;;;;;2083490;28;20599;-77
2023/04/14 00:41:35;;;;;;;11.90;8.75;;;9.10;99.90;;;;;;2081027;28;20033;-77
2023/04/14 00:42:44;;;;;;;11.55;8.52;;;9.10;99.90;;;;;;2081807;28;20094;-76
2023/04/14 00:43:44;;;;;;;11.88;8.70;;;9.10;99.90;;;;;;2083076;28;20514;-74
2023/04/14 00:44:46;;;;;;;13.10;8.30;;;9.10;99.90;;;;;;2083305;28;20496;-77
2023/04/14 00:45:49;;;;;;;10.60;7.68;;;9.10;99.90;;;;;;2084648;28;20036;-77
2023/04/14 00:46:50;;;;;;;12.30;8.38;;;9.10;99.90;;;;;;2082757;28;20117;-77
2023/04/14 00:47:51;;;;;;;10.63;7.57;;;9.10;99.90;;;;;;2083297;28;20440;-77
2023/04/14 00:48:54;;;;;;;9.63;7.10;;;9.10;99.90;;;;;;2083673;28;20037;-77
2023/04/14 00:49:55;;;;;;;11.35;7.10;;;9.10;99.90;;;;;;2082748;28;20506;-76
2023/04/14 00:50:56;;;;;;;10.45;7.10;;;9.10;99.90;;;;;;2084690;28;20025;-77
2023/04/14 00:51:57;;;;;;;10.70;7.10;;;9.10;99.90;;;;;;2083210;28;20021;-76
2023/04/14 00:52:57;;;;;;;9.52;7.20;;;9.10;99.90;;;;;;2084588;28;20032;-76
2023/04/14 00:54:01;;;;;;;11.05;7.28;;;9.10;99.90;;;;;;2083991;28;20025;-76
2023/04/14 00:55:04;;;;;;;11.85;6.97;;;9.10;99.90;;;;;;2088956;28;20044;-77
2023/04/14 00:56:04;;;;;;;11.50;6.65;;;9.10;99.90;;;;;;2080225;28;20029;-77
2023/04/14 00:57:06;;;;;;;10.20;7.20;;;9.10;99.90;;;;;;2083258;28;20067;-78
2023/04/14 00:58:07;;;;;;;12.10;7.40;;;9.10;99.90;;;;;;2083296;28;20029;-76
2023/04/14 00:59:08;;;;;;;10.57;7.10;;;9.10;99.90;;;;;;2083391;28;20029;-77
2023/04/14 01:00:11;;;;;;;10.35;7.40;;;9.10;99.90;;;;;;2080316;28;20398;-77
2023/04/14 01:01:12;;;;;;;12.45;7.45;;;9.10;99.90;;;;;;2083050;28;20385;-77
2023/04/14 01:02:14;;;;;;;10.45;6.88;;;9.10;99.90;;;;;;2087160;28;20305;-76
2023/04/14 01:03:15;;;;;;;11.15;7.38;;;9.10;99.90;;;;;;2084631;28;20021;-77
2023/04/14 01:04:17;;;;;;;11.40;7.22;;;9.10;99.90;;;;;;2082583;28;20037;-76
2023/04/14 01:05:17;;;;;;;12.52;7.45;;;9.10;99.90;;;;;;2081470;28;20024;-75
2023/04/14 01:06:19;;;;;;;12.77;7.22;;;9.10;99.90;;;;;;2082277;28;20091;-75
2023/04/14 01:07:21;;;;;;;9.60;7.00;;;9.10;99.90;;;;;;2084722;28;20367;-74
2023/04/14 01:08:23;;;;;;;10.65;7.03;;;9.10;99.90;;;;;;2082047;28;20538;-75
2023/04/14 01:09:24;;;;;;;9.70;7.00;;;9.10;99.90;;;;;;2074369;28;20131;-75
2023/04/14 01:10:32;;;;;;;11.20;7.32;;;9.10;99.90;;;;;;2070198;28;20037;-75
2023/04/14 01:11:54;;;;;;;10.25;6.97;;;9.00;99.90;;;;;;2082227;28;20124;-76
2023/04/14 01:13:19;;;;;;;10.15;6.70;;;9.00;99.90;;;;;;2075861;28;20025;-76
2023/04/14 01:14:48;;;;;;;8.98;6.45;;;9.10;99.90;;;;;;2081408;28;20033;-76
2023/04/14 01:15:59;;;;;;;9.57;6.65;;;9.10;99.90;;;;;;2080452;28;20033;-76
2023/04/14 01:17:08;;;;;;;10.45;6.50;;;9.10;99.90;;;;;;2082468;28;20037;-76
2023/04/14 01:18:39;;;;;;;9.85;6.93;;;9.10;99.90;;;;;;2072322;28;20021;-74
2023/04/14 01:20:10;;;;;;;12.30;7.00;;;9.10;99.90;;;;;;2076470;28;20496;-75
2023/04/14 01:21:17;;;;;;;;;;;9.10;99.90;;;;;;2081754;28;20112;-75
2023/04/14 01:22:24;;;;;;;8.95;6.40;;;9.10;99.90;;;;;;2080055;28;20376;-75
2023/04/14 01:23:35;;;;;;;9.30;6.50;;;9.10;99.90;;;;;;2082802;28;20025;-74
2023/04/14 01:24:49;;;;;;;10.50;6.75;;;9.10;99.90;;;;;;2084277;28;20033;-74
2023/04/14 01:26:10;;;;;;;10.93;6.57;;;9.10;99.90;;;;;;2084379;28;20086;-75
2023/04/14 01:27:30;;;;;;;;;;;9.10;99.90;;;;;;2083202;28;20032;-74
2023/04/14 01:28:53;;;;;;;10.95;6.55;;;9.10;99.90;;;;;;2082533;28;19919;-74
2023/04/14 01:30:18;;;;;;;10.43;6.45;;;9.00;99.90;;;;;;2075158;28;20025;-76
2023/04/14 01:31:33;;;;;;;10.20;6.75;;;9.10;99.90;;;;;;2080323;28;20032;-75
2023/04/14 01:32:41;;;;;;;10.10;6.38;;;9.10;99.90;;;;;;2082615;28;20029;-75
2023/04/14 01:33:47;;;;;;;10.23;6.57;;;9.10;99.90;;;;;;2082238;28;20032;-75
2023/04/14 01:34:56;;;;;;;9.75;6.38;;;9.00;99.90;;;;;;2082508;28;20200;-74
2023/04/14 01:36:04;;;;;;;8.30;6.20;;;9.00;99.90;;;;;;2082337;28;20028;-74
2023/04/14 01:37:12;;;;;;;8.68;6.05;;;9.10;99.90;;;;;;2074698;28;20424;-74
2023/04/14 01:38:26;;;;;;;9.40;6.25;;;9.10;99.90;;;;;;2075044;28;20087;-75
2023/04/14 01:39:35;;;;;;;9.80;6.40;;;9.10;99.90;;;;;;2075951;28;20034;-74
2023/04/14 01:40:39;;;;;;;10.02;7.10;;;9.10;99.90;;;;;;2077741;28;20032;-73
2023/04/14 01:41:47;;;;;;;12.18;7.10;;;9.10;99.90;;;;;;2081402;28;20484;-75
2023/04/14 01:43:01;;;;;;;11.40;6.95;;;9.10;99.90;;;;;;2089460;28;20148;-75
2023/04/14 01:44:05;;;;;;;11.77;6.63;;;9.10;99.90;;;;;;2082080;28;20092;-75
2023/04/14 01:45:14;;;;;;;9.55;6.13;;;9.10;99.90;;;;;;2074407;28;20053;-75
2023/04/14 01:46:16;;;;;;;8.95;6.15;;;9.10;99.90;;;;;;2082362;28;20413;-75
2023/04/14 01:47:20;;;;;;;9.30;6.13;;;9.10;99.90;;;;;;2085735;28;20024;-76
2023/04/14 01:48:23;;;;;;;8.82;5.95;;;9.10;99.90;;;;;;2077315;28;20064;-75
2023/04/14 01:49:25;;;;;;;8.85;5.90;;;9.10;99.90;;;;;;2077121;28;20025;-75
2023/04/14 01:50:27;;;;;;;8.25;5.95;;;9.10;99.90;;;;;;2085708;28;20225;-75
2023/04/14 01:51:30;;;;;;;10.90;6.00;;;9.10;99.90;;;;;;2079636;28;20108;-75
2023/04/14 01:52:33;;;;;;;10.20;6.13;;;9.10;99.90;;;;;;2079599;28;20083;-74
2023/04/14 01:53:37;;;;;;;10.02;5.97;;;9.10;99.90;;;;;;2082284;28;20033;-76
2023/04/14 01:54:41;;;;;;;9.90;6.00;;;9.10;99.90;;;;;;2082446;28;20024;-76
2023/04/14 01:55:43;;;;;;;8.02;5.57;;;9.10;99.90;;;;;;2086748;28;20074;-75
2023/04/14 01:56:44;;;;;;;9.63;5.90;;;9.10;99.90;;;;;;2082250;28;20025;-75
2023/04/14 01:57:47;;;;;;;7.97;6.00;;;9.10;99.90;;;;;;2090197;28;20593;-75
2023/04/14 01:58:48;;;;;;;8.63;5.70;;;9.10;99.90;;;;;;2076143;28;20488;-75
2023/04/14 01:59:52;;;;;;;9.02;5.95;;;9.00;99.90;;;;;;2079328;28;20496;-74
2023/04/14 02:00:54;;;;;;;9.27;6.05;;;9.00;99.90;;;;;;2082255;28;20048;-75
2023/04/14 02:01:56;;;;;;;6.88;5.90;;;9.10;99.90;;;;;;2075823;28;20029;-75
2023/04/14 02:02:57;;;;;;;8.75;5.90;;;9.00;99.90;;;;;;2082102;28;20291;-75
2023/04/14 02:04:00;;;;;;;8.27;6.05;;;9.10;99.90;;;;;;2082346;28;20100;-74
2023/04/14 02:05:01;;;;;;;9.25;6.28;;;9.00;99.90;;;;;;2074229;28;20634;-75
2023/04/14 02:06:04;;;;;;;7.50;5.85;;;9.00;99.90;;;;;;2084210;28;20036;-75
2023/04/14 02:07:05;;;;;;;8.77;6.05;;;9.00;99.90;;;;;;2078912;28;20037;-77
2023/04/14 02:08:11;;;;;;;8.93;6.40;;;9.00;99.90;;;;;;2080411;28;20055;-75
2023/04/14 02:09:15;;;;;;;8.68;6.25;;;9.00;99.90;;;;;;2073602;28;20363;-76
2023/04/14 02:10:19;;;;;;;9.90;6.20;;;9.00;99.90;;;;;;2076012;28;20064;-75
2023/04/14 02:11:20;;;;;;;7.95;6.05;;;9.00;99.90;;;;;;2087325;28;20020;-74
2023/04/14 02:12:23;;;;;;;9.85;6.10;;;9.00;99.90;;;;;;2083388;28;20037;-75
2023/04/14 02:13:26;;;;;;;9.32;5.85;;;9.00;99.90;;;;;;2087574;28;20518;-76
2023/04/14 02:14:27;;;;;;;8.73;5.88;;;9.00;99.90;;;;;;2090218;28;21138;-77
2023/04/14 02:15:31;;;;;;;8.82;6.03;;;9.00;99.90;;;;;;2081901;28;20032;-75
2023/04/14 02:16:34;;;;;;;8.20;5.60;;;9.00;99.90;;;;;;2082049;28;20464;-76
2023/04/14 02:17:35;;;;;;;8.15;5.90;;;8.90;99.90;;;;;;2081679;28;20629;-76
2023/04/14 02:18:39;;;;;;;10.70;5.97;;;8.90;99.90;;;;;;2082018;28;20534;-76
2023/04/14 02:19:42;;;;;;;8.98;5.65;;;8.90;99.90;;;;;;2081111;28;20020;-77
2023/04/14 02:20:46;;;;;;;8.63;5.85;;;8.90;99.90;;;;;;2084260;28;20167;-77
2023/04/14 02:21:49;;;;;;;9.88;6.15;;;8.90;99.90;;;;;;2084557;28;20058;-77
2023/04/14 02:22:50;;;;;;;10.48;6.07;;;8.90;99.90;;;;;;2085340;28;20052;-77
2023/04/14 02:23:51;;;;;;;10.02;6.00;;;8.90;99.90;;;;;;2085441;28;20056;-77
2023/04/14 02:24:53;;;;;;;7.35;5.35;;;8.90;99.90;;;;;;2088182;28;20070;-78
2023/04/14 02:26:08;;;;;;;8.98;5.82;;;8.90;99.90;;;;;;2087038;28;20029;-78
2023/04/14 02:27:21;;;;;;;8.95;5.70;;;8.90;99.90;;;;;;2078603;28;20547;-77
2023/04/14 02:28:26;;;;;;;6.50;5.30;;;8.90;99.90;;;;;;2082297;28;20025;-77
2023/04/14 02:29:28;;;;;;;10.10;5.80;;;8.90;99.90;;;;;;2081782;28;20029;-77
2023/04/14 02:30:32;;;;;;;11.13;6.03;;;8.90;99.90;;;;;;2073401;28;20076;-77
2023/04/14 02:31:36;;;;;;;8.05;5.40;;;8.90;99.90;;;;;;2071908;28;20045;-77
2023/04/14 02:32:41;;;;;;;7.40;5.50;;;8.90;99.90;;;;;;2087074;28;20033;-77
2023/04/14 02:33:44;;;;;;;7.68;5.90;;;8.90;99.90;;;;;;2071088;28;20504;-77
2023/04/14 02:35:00;;;;;;;10.38;6.20;;;8.90;99.90;;;;;;2073902;28;20029;-77
2023/04/14 02:36:08;;;;;;;12.48;6.90;;;8.90;99.90;;;;;;2080130;28;20055;-76
2023/04/14 02:37:20;;;;;;;9.85;7.13;;;8.90;99.90;;;;;;2071092;28;20025;-74
2023/04/14 02:38:28;;;;;;;9.02;6.60;;;8.90;99.90;;;;;;2066298;28;20029;-74
2023/04/14 02:39:34;;;;;;;11.00;6.70;;;8.90;99.90;;;;;;2072077;28;20025;-75
2023/04/14 02:40:39;;;;;;;9.10;6.10;;;8.90;99.90;;;;;;2073687;28;20036;-74
2023/04/14 02:41:43;;;;;;;8.65;6.32;;;8.90;99.90;;;;;;2068457;28;20030;-75
2023/04/14 02:42:47;;;;;;;9.30;6.63;;;8.90;99.90;;;;;;2083711;28;20413;-75
2023/04/14 02:43:56;;;;;;;10.18;6.88;;;8.90;99.90;;;;;;2086632;28;22278;-75
2023/04/14 02:45:05;;;;;;;10.30;6.90;;;8.90;99.90;;;;;;2086376;28;20127;-75
2023/04/14 02:46:10;;;;;;;10.68;6.80;;;8.90;99.90;;;;;;2079044;28;20083;-75
2023/04/14 02:47:14;;;;;;;10.25;6.82;;;8.80;99.90;;;;;;2073910;28;20528;-69
2023/04/14 02:48:22;;;;;;;9.43;6.40;;;8.80;99.90;;;;;;2074240;28;20495;-71
2023/04/14 02:49:23;;;;;;;10.50;6.22;;;8.80;99.90;;;;;;2074171;28;20030;-83
2023/04/14 02:50:27;;;;;;;10.43;6.50;;;8.90;99.90;;;;;;2073537;28;20037;-74
2023/04/14 02:51:45;;;;;;;8.07;6.18;;;8.80;99.90;;;;;;2073618;28;20087;-70
2023/04/14 02:52:50;;;;;;;9.48;6.00;;;8.80;99.90;;;;;;2077300;28;20456;-70
2023/04/14 02:53:52;;;;;;;8.85;6.40;;;8.80;99.90;;;;;;2080214;28;20124;-71
2023/04/14 02:55:02;;;;;;;8.52;5.78;;;8.90;99.90;;;;;;2074426;28;20192;-71
2023/04/14 02:56:03;;;;;;;7.45;5.63;;;8.90;99.90;;;;;;2073726;28;20507;-71
2023/04/14 02:57:09;;;;;;;9.10;5.60;;;8.90;99.90;;;;;;2079120;28;20469;-72
2023/04/14 02:58:15;;;;;;;11.93;6.40;;;8.90;99.90;;;;;;2078844;28;20036;-72
2023/04/14 02:59:17;;;;;;;8.43;5.63;;;8.90;99.90;;;;;;2077253;28;20029;-72
2023/04/14 03:00:36;;;;;;;9.00;6.43;;;8.90;99.90;;;;;;2083695;28;20021;-72
2023/04/14 03:01:38;;;;;;;9.98;5.93;;;8.90;99.90;;;;;;2081771;28;20048;-72
2023/04/14 03:02:40;;;;;;;10.25;6.70;;;8.90;99.90;;;;;;2083608;28;20037;-72
2023/04/14 03:03:43;;;;;;;11.00;6.72;;;8.90;99.90;;;;;;2082966;28;20453;-72
2023/04/14 03:04:45;;;;;;;8.55;6.18;;;8.90;99.90;;;;;;2076655;28;20029;-72
2023/04/14 03:05:55;;;;;;;10.45;6.32;;;8.80;99.90;;;;;;2074622;28;20124;-72
2023/04/14 03:06:57;;;;;;;7.85;5.78;;;8.90;99.90;;;;;;2083495;28;20025;-72
2023/04/14 03:07:59;;;;;;;7.55;5.60;;;8.80;99.90;;;;;;2073090;28;21047;-72
2023/04/14 03:09:00;;;;;;;8.63;5.97;;;8.90;99.90;;;;;;2073548;28;20036;-72
2023/04/14 03:10:03;;;;;;;8.65;6.00;;;8.80;99.90;;;;;;2076548;28;20787;-72
2023/04/14 03:11:05;;;;;;;9.25;6.35;;;8.80;99.90;;;;;;2074069;28;20021;-73
2023/04/14 03:12:11;;;;;;;9.55;6.20;;;8.90;99.90;;;;;;2071411;28;20029;-73
2023/04/14 03:13:14;;;;;;;9.00;6.07;;;8.80;99.90;;;;;;2081524;28;20108;-72
2023/04/14 03:14:17;;;;;;;8.52;6.07;;;8.80;99.90;;;;;;2073528;28;20030;-72
2023/04/14 03:15:20;;;;;;;11.60;6.63;;;8.80;99.90;;;;;;2083388;28;20060;-73
2023/04/14 03:16:22;;;;;;;10.20;6.90;;;8.80;99.90;;;;;;2085064;28;20017;-70
2023/04/14 03:17:24;;;;;;;11.60;6.85;;;8.80;99.90;;;;;;2086943;28;20558;-73
2023/04/14 03:18:26;;;;;;;11.23;7.47;;;8.70;99.90;;;;;;2079077;28;20112;-73
2023/04/14 03:19:30;;;;;;;12.60;7.70;;;8.60;99.90;;;;;;2073577;28;20036;-73
2023/04/14 03:20:33;;;;;;;11.25;7.30;;;8.60;99.90;;;;;;2073785;28;20029;-73
2023/04/14 03:21:35;;;;;;;9.73;7.00;;;8.60;99.90;;;;;;2075693;28;20025;-73
2023/04/14 03:22:39;;;;;;;11.85;7.30;;;8.60;99.90;;;;;;2073225;28;20037;-73
2023/04/14 03:23:43;;;;;;;11.30;6.93;;;8.50;99.90;;;;;;2081717;28;20567;-72
2023/04/14 03:24:45;;;;;;;12.25;6.75;;;8.40;99.90;;;;;;2075655;28;20033;-73
2023/04/14 03:25:47;;;;;;;11.00;7.18;;;8.40;99.90;;;;;;2073369;28;20479;-72
2023/04/14 03:27:00;;;;;;;9.32;6.97;;;8.40;99.90;;;;;;2074224;28;20033;-70
2023/04/14 03:28:03;;;;;;;9.02;6.63;;;8.40;99.90;;;;;;2081783;28;20029;-73
2023/04/14 03:29:06;;;;;;;9.20;6.78;;;8.30;99.90;;;;;;2091002;28;20060;-72
2023/04/14 03:30:11;;;;;;;8.73;6.78;;;8.30;99.90;;;;;;2083062;28;20021;-71
2023/04/14 03:31:15;;;;;;;8.43;6.47;;;8.30;99.90;;;;;;2083803;28;20055;-72
2023/04/14 03:32:32;;;;;;;11.38;6.43;;;8.30;99.90;;;;;;2090003;28;20330;-71
2023/04/14 03:33:34;;;;;;;8.23;6.88;;;8.30;99.90;;;;;;2083266;28;20140;-71
2023/04/14 03:34:40;;;;;;;12.00;6.35;;;8.30;99.90;;;;;;2075403;28;20025;-71
2023/04/14 03:35:42;;;;;;;8.63;6.35;;;8.30;99.90;;;;;;2086854;28;20311;-71
2023/04/14 03:36:43;;;;;;;9.25;6.88;;;8.30;99.90;;;;;;2080555;28;20423;-71
2023/04/14 03:37:47;;;;;;;10.60;6.88;;;8.30;99.90;;;;;;2083226;28;20181;-72
2023/04/14 03:38:50;;;;;;;9.15;6.57;;;8.30;99.90;;;;;;2075544;28;20040;-71
2023/04/14 03:39:52;;;;;;;9.68;7.22;;;8.30;99.90;;;;;;2075151;28;20094;-71
2023/04/14 03:40:58;;;;;;;12.95;7.40;;;8.30;99.90;;;;;;2085149;28;20029;-71
2023/04/14 03:42:00;;;;;;;14.25;7.88;;;8.30;99.90;;;;;;2077647;28;20030;-71
2023/04/14 03:43:04;;;;;;;11.63;7.25;;;8.30;99.90;;;;;;2083089;28;20515;-73
2023/04/14 03:44:06;;;;;;;10.70;7.30;;;8.30;99.90;;;;;;2068865;28;20404;-71
2023/04/14 03:45:07;;;;;;;11.02;7.40;;;8.30;99.90;;;;;;2078785;28;20041;-71
2023/04/14 03:46:11;;;;;;;12.85;8.50;;;8.30;99.90;;;;;;2087052;28;20032;-71
2023/04/14 03:47:13;;;;;;;12.27;8.25;;;8.30;99.90;;;;;;2086072;28;20395;-72
2023/04/14 03:48:17;;;;;;;12.65;8.00;;;8.30;99.90;;;;;;2083898;28;20021;-72
2023/04/14 03:49:22;;;;;;;12.75;8.40;;;8.30;99.90;;;;;;2081128;28;20403;-72
2023/04/14 03:50:30;;;;;;;14.10;8.73;;;8.30;99.90;;;;;;2076643;28;20120;-71
2023/04/14 03:51:31;;;;;;;12.43;8.90;;;8.30;99.90;;;;;;2080862;28;20325;-71
2023/04/14 03:52:34;;;;;;;16.83;10.40;;;8.30;99.90;;;;;;2083050;28;20193;-71
2023/04/14 03:53:36;;;;;;;13.38;9.90;;;8.30;99.90;;;;;;2080187;28;20021;-72
2023/04/14 03:54:40;;;;;;;14.07;10.18;;;8.30;99.90;;;;;;2086411;28;20585;-71
2023/04/14 03:55:44;;;;;;;15.88;10.68;;;8.30;99.90;;;;;;2084934;28;20079;-72
2023/04/14 03:56:47;;;;;;;18.38;12.48;;;8.30;99.90;;;;;;2085058;28;20456;-71
2023/04/14 03:57:49;;;;;;;16.13;11.98;;;8.30;99.90;;;;;;2084850;28;20470;-72
2023/04/14 03:58:53;;;;;;;17.65;11.52;;;8.30;99.90;;;;;;2074477;28;20029;-72
2023/04/14 03:59:54;;;;;;;15.27;10.27;;;8.20;99.90;;;;;;2083532;28;20488;-72
2023/04/14 04:00:59;;;;;;;15.30;10.30;;;8.20;99.90;;;;;;2082949;28;20044;-72
2023/04/14 04:02:01;;;;;;;15.05;10.18;;;8.20;99.90;;;;;;2083019;28;20036;-71
2023/04/14 04:03:03;;;;;;;14.35;9.55;;;8.20;99.90;;;;;;2083057;28;20029;-70
2023/04/14 04:04:05;;;;;;;14.13;9.70;;;8.20;99.90;;;;;;2084923;28;20128;-70
2023/04/14 04:05:08;;;;;;;12.05;9.55;;;8.20;99.90;;;;;;2083516;28;20028;-72
2023/04/14 04:06:09;;;;;;;13.90;9.90;;;8.10;99.90;;;;;;2082662;28;20504;-71
2023/04/14 04:07:12;;;;;;;15.93;9.98;;;8.10;99.90;;;;;;2082928;28;20052;-71
2023/04/14 04:08:14;;;;;;;13.82;9.80;;;8.10;99.90;;;;;;2085384;28;20045;-72
2023/04/14 04:09:16;;;;;;;13.65;9.70;;;8.10;99.90;;;;;;2082851;28;20373;-70
2023/04/14 04:10:19;;;;;;;11.20;8.70;;;8.10;99.90;;;;;;2077265;28;20512;-71
2023/04/14 04:11:21;;;;;;;13.13;8.85;;;8.10;99.90;;;;;;2080789;28;20400;-70
2023/04/14 04:12:25;;;;;;;12.73;8.80;;;8.10;99.90;;;;;;2083053;28;20036;-71
2023/04/14 04:13:27;;;;;;;14.57;9.48;;;8.10;99.90;;;;;;2088618;28;20496;-70
2023/04/14 04:14:29;;;;;;;11.57;8.77;;;8.10;99.90;;;;;;2072145;28;20419;-71
2023/04/14 04:15:31;;;;;;;13.52;9.00;;;8.10;99.90;;;;;;2075054;28;20025;-74
2023/04/14 04:16:34;;;;;;;13.40;9.25;;;8.10;99.90;;;;;;2082709;28;20025;-79
2023/04/14 04:17:36;;;;;;;12.32;8.88;;;8.10;99.90;;;;;;2074972;28;20037;-73
2023/04/14 04:18:41;;;;;;;12.10;8.88;;;8.10;99.90;;;;;;2078835;28;20035;-80
2023/04/14 04:19:44;;;;;;;12.75;9.20;;;8.10;99.90;;;;;;2081697;28;20519;-80
2023/04/14 04:20:45;;;;;;;11.55;8.68;;;8.10;99.90;;;;;;2082745;28;20040;-74
2023/04/14 04:21:54;;;;;;;12.23;9.23;;;8.10;99.90;;;;;;2078630;28;20033;-71
2023/04/14 04:22:59;;;;;;;12.13;8.88;;;8.10;99.90;;;;;;2070416;28;20068;-72
2023/04/14 04:24:01;;;;;;;11.43;8.75;;;8.10;99.90;;;;;;2076671;28;20288;-73
2023/04/14 04:25:04;;;;;;;15.20;9.95;;;8.00;99.90;;;;;;2082527;28;20031;-73
2023/04/14 04:26:08;;;;;;;12.98;9.57;;;8.10;99.90;;;;;;2089970;28;20028;-73
2023/04/14 04:27:11;;;;;;;12.55;9.35;;;8.00;99.90;;;;;;2090399;28;20056;-74
2023/04/14 04:28:13;;;;;;;12.77;9.07;;;8.10;99.90;;;;;;2081826;28;20044;-74
2023/04/14 04:29:15;;;;;;;17.95;11.20;;;8.10;99.90;;;;;;2074850;28;20116;-75
2023/04/14 04:30:16;;;;;;;13.00;10.00;;;8.00;99.90;;;;;;2082573;28;20512;-76
2023/04/14 04:31:18;;;;;;;14.48;10.27;;;8.00;99.90;;;;;;2093682;28;20023;-75
2023/04/14 04:32:20;;;;;;;14.30;10.10;;;8.00;99.90;;;;;;2082573;28;20397;-75
2023/04/14 04:33:21;;;;;;;14.20;9.80;;;8.10;99.90;;;;;;2082810;28;20337;-77
2023/04/14 04:34:24;;;;;;;12.20;9.93;;;8.10;99.90;;;;;;2077906;28;20033;-76
2023/04/14 04:35:27;;;;;;;15.18;9.60;;;8.00;99.90;;;;;;2088420;28;20040;-76
2023/04/14 04:36:30;;;;;;;15.20;9.82;;;8.00;99.90;;;;;;2083491;28;20598;-73
2023/04/14 04:37:32;;;;;;;15.35;10.30;;;8.00;99.90;;;;;;2082640;28;20025;-75
2023/04/14 04:38:33;;;;;;;18.08;11.82;;;8.00;99.90;;;;;;2074611;28;20065;-74
2023/04/14 04:39:34;;;;;;;19.27;12.15;;;8.00;99.90;;;;;;2075955;28;20037;-72
2023/04/14 04:40:39;;;;;;;16.20;11.45;;;8.00;99.90;;;;;;2074543;28;20035;-73
2023/04/14 04:41:46;;;;;;;18.65;10.75;;;8.00;99.90;;;;;;2075696;28;20268;-73
2023/04/14 04:42:47;;;;;;;17.08;11.43;;;8.00;99.90;;;;;;2082727;28;20350;-73
2023/04/14 04:43:50;;;;;;;16.25;10.82;;;8.00;99.90;;;;;;2074753;28;20026;-72
2023/04/14 04:44:50;;;;;;;18.20;10.73;;;8.00;99.90;;;;;;2087433;28;20569;-73
2023/04/14 04:46:10;;;;;;;13.68;10.18;;;8.00;99.90;;;;;;2081616;28;20496;-73
2023/04/14 04:47:12;;;;;;;14.50;10.88;;;8.00;99.90;;;;;;2083658;28;20025;-74
2023/04/14 04:48:12;;;;;;;13.65;10.20;;;8.10;99.90;;;;;;2081709;28;20040;-74
2023/04/14 04:49:16;;;;;;;15.48;10.30;;;8.10;99.90;;;;;;2079261;28;20141;-73
2023/04/14 04:50:17;;;;;;;12.48;9.60;;;8.00;99.90;;;;;;2062016;28;20030;-72
2023/04/14 04:51:18;;;;;;;12.73;9.65;;;8.10;99.90;;;;;;2071310;28;20723;-72
2023/04/14 04:52:19;;;;;;;13.23;9.85;;;8.10;99.90;;;;;;2080305;28;20028;-72
2023/04/14 04:53:19;;;;;;;15.38;10.20;;;8.00;99.90;;;;;;2078749;28;20021;-73
2023/04/14 04:54:20;;;;;;;13.73;10.05;;;8.10;99.90;;;;;;2068052;28;20034;-71
2023/04/14 04:55:20;;;;;;;13.02;9.40;;;8.10;99.90;;;;;;2076812;28;20017;-72
2023/04/14 04:56:21;;;;;;;13.10;9.82;;;8.10;99.90;;;;;;2077630;28;20025;-71
2023/04/14 04:57:22;;;;;;;12.60;9.32;;;8.10;99.90;;;;;;2080277;28;20464;-71
2023/04/14 04:58:22;;;;;;;13.20;9.40;;;8.10;99.90;;;;;;2078940;28;20032;-71
2023/04/14 04:59:23;;;;;;;14.73;9.77;;;8.10;99.90;;;;;;2076153;28;20064;-72
2023/04/14 05:00:25;;;;;;;12.45;9.70;;;8.10;99.90;;;;;;2082281;28;20528;-74
2023/04/14 05:01:26;;;;;;;13.18;9.85;;;8.10;99.90;;;;;;2083852;28;20241;-72
2023/04/14 05:02:26;;;;;;;13.60;9.60;;;8.10;99.90;;;;;;2085622;28;20028;-71
2023/04/14 05:03:27;;;;;;;13.93;9.63;;;8.10;99.90;;;;;;2087127;28;20634;-71
2023/04/14 05:04:27;;;;;;;12.70;9.07;;;8.10;99.90;;;;;;2087226;28;20033;-73
2023/04/14 05:05:28;;;;;;;12.27;9.55;;;8.10;99.90;;;;;;2088873;28;20410;-72
2023/04/14 05:06:29;;;;;;;13.35;9.68;;;8.10;99.90;;;;;;2086081;28;20032;-75
2023/04/14 05:07:29;;;;;;;12.48;9.73;;;8.10;99.90;;;;;;2080026;28;20138;-73
2023/04/14 05:08:30;;;;;;;12.32;9.80;;;8.20;99.90;;;;;;2084079;28;20044;-74
2023/04/14 05:09:30;;;;;;;11.52;8.95;;;8.10;99.90;;;;;;2077811;28;20094;-75
2023/04/14 05:10:35;;;;;;;13.57;9.70;;;8.10;99.90;;;;;;2082920;28;20044;-75
2023/04/14 05:11:35;;;;;;;12.40;9.35;;;8.10;99.90;;;;;;2083016;28;20048;-75
2023/04/14 05:12:36;;;;;;;15.93;9.93;;;8.10;99.90;;;;;;2082707;28;20478;-72
2023/04/14 05:13:37;;;;;;;13.63;10.00;;;8.10;99.90;;;;;;2084519;28;20108;-76
2023/04/14 05:14:37;;;;;;;14.93;10.50;;;8.20;99.90;;;;;;2082046;28;20031;-71
2023/04/14 05:15:38;;;;;;;15.15;10.50;;;8.10;99.90;;;;;;2073679;28;20083;-72
2023/04/14 05:16:38;;;;;;;16.42;10.48;;;8.10;99.90;;;;;;2076707;28;20403;-76
2023/04/14 05:17:39;;;;;;;15.75;10.55;;;8.20;99.90;;;;;;2088992;28;20545;-76
2023/04/14 05:18:40;;;;;;;14.98;10.35;;;8.20;99.90;;;;;;2082914;28;20028;-77
2023/04/14 05:19:41;;;;;;;13.65;10.40;;;8.20;99.90;;;;;;2082059;28;20025;-76
2023/04/14 05:20:41;;;;;;;13.68;9.80;;;8.20;99.90;;;;;;2082982;28;20044;-74
2023/04/14 05:21:42;;;;;;;13.75;10.23;;;8.20;99.90;;;;;;2086025;28;20320;-73
2023/04/14 05:22:42;;;;;;;13.35;10.40;;;8.20;99.90;;;;;;2084050;28;20445;-76
2023/04/14 05:23:44;;;;;;;16.73;10.50;;;8.20;99.90;;;;;;2082093;28;20528;-73
2023/04/14 05:24:49;;;;;;;14.30;10.90;;;8.30;99.90;;;;;;2073476;28;20606;-74
2023/04/14 05:25:50;;;;;;;14.40;10.90;;;8.20;99.90;;;;;;2074034;28;20196;-75
2023/04/14 05:26:50;;;;;;;13.90;10.90;;;8.20;99.90;;;;;;2079117;28;20507;-67
2023/04/14 05:27:51;;;;;;;14.50;9.98;;;8.20;99.90;;;;;;2078272;28;20075;-70
2023/04/14 05:28:51;;;;;;;15.25;10.90;;;8.30;99.90;;;;;;2082420;28;20597;-69
2023/04/14 05:29:52;;;;;;;15.15;10.57;;;8.20;99.90;;;;;;2081161;28;20498;-70
2023/04/14 05:30:53;;;;;;;14.93;10.45;;;8.30;99.90;;;;;;2084275;28;20168;-70
2023/04/14 05:31:53;;;;;;;13.90;10.23;;;8.20;99.90;;;;;;2082562;28;20028;-78
2023/04/14 05:32:54;;;;;;;13.77;10.30;;;8.30;99.90;;;;;;2081926;28;20079;-76